createdAt,value
2017-12-30T00:00:53.575Z,2.98
2017-12-30T00:01:53.848Z,2.98
2017-12-30T00:02:53.810Z,2.98
2017-12-30T00:03:53.890Z,2.99
2017-12-30T00:04:53.841Z,2.98
2017-12-30T00:05:54.023Z,2.98
2017-12-30T00:06:53.203Z,2.98
2017-12-30T00:07:54.020Z,2.99
2017-12-30T00:08:53.272Z,2.99
2017-12-30T00:09:53.588Z,2.99
2017-12-30T00:10:53.638Z,2.98
2017-12-30T00:11:53.960Z,2.98
2017-12-30T00:12:53.334Z,2.97
2017-12-30T00:13:53.523Z,2.97
2017-12-30T00:14:53.642Z,2.96
2017-12-30T00:15:53.614Z,2.96
2017-12-30T00:16:53.929Z,2.94
2017-12-30T00:17:53.987Z,2.93
2017-12-30T00:18:54.296Z,2.91
2017-12-30T00:19:55.837Z,2.91
2017-12-30T00:20:55.293Z,2.89
2017-12-30T00:21:54.869Z,2.86
2017-12-30T00:22:54.116Z,2.85
2017-12-30T00:23:53.844Z,2.83
2017-12-30T00:24:54.434Z,2.82
2017-12-30T00:25:55.146Z,2.81
2017-12-30T00:26:53.892Z,2.78
2017-12-30T00:27:53.969Z,2.78
2017-12-30T00:28:54.187Z,2.76
2017-12-30T00:29:54.271Z,2.74
2017-12-30T00:30:55.093Z,2.72
2017-12-30T00:31:54.395Z,2.69
2017-12-30T00:32:54.522Z,2.67
2017-12-30T00:33:54.961Z,2.64
2017-12-30T00:34:55.160Z,2.62
2017-12-30T00:35:54.741Z,2.61
2017-12-30T00:36:54.425Z,2.59
2017-12-30T00:37:53.817Z,2.57
2017-12-30T00:38:53.889Z,2.57
2017-12-30T00:39:53.885Z,2.56
2017-12-30T00:40:54.108Z,2.55
2017-12-30T00:41:54.443Z,2.55
2017-12-30T00:42:54.371Z,2.56
2017-12-30T00:43:54.083Z,2.58
2017-12-30T00:44:53.877Z,2.59
2017-12-30T00:45:54.173Z,2.58
2017-12-30T00:46:53.196Z,2.61
2017-12-30T00:47:53.933Z,2.63
2017-12-30T00:48:54.047Z,2.66
2017-12-30T00:49:54.051Z,2.68
2017-12-30T00:50:54.050Z,2.7
2017-12-30T00:51:53.140Z,2.73
2017-12-30T00:52:54.010Z,2.77
2017-12-30T00:53:53.631Z,2.81
2017-12-30T00:54:53.790Z,2.85
2017-12-30T00:55:53.563Z,2.88
2017-12-30T00:56:53.758Z,2.92
2017-12-30T00:57:53.784Z,2.94
2017-12-30T00:58:53.686Z,2.97
2017-12-30T00:59:53.755Z,3.01
2017-12-30T01:00:53.567Z,3.05
2017-12-30T01:01:53.650Z,3.07
2017-12-30T01:02:53.826Z,3.09
2017-12-30T01:03:54.384Z,3.1
2017-12-30T01:04:53.325Z,3.11
2017-12-30T01:05:53.328Z,3.14
2017-12-30T01:06:53.597Z,3.16
2017-12-30T01:07:53.410Z,3.17
2017-12-30T01:08:53.380Z,3.18
2017-12-30T01:09:53.513Z,3.19
2017-12-30T01:10:53.478Z,3.21
2017-12-30T01:11:53.539Z,3.21
2017-12-30T01:12:53.472Z,3.21
2017-12-30T01:13:53.495Z,3.21
2017-12-30T01:14:53.481Z,3.23
2017-12-30T01:15:53.465Z,3.23
2017-12-30T01:16:53.473Z,3.25
2017-12-30T01:17:53.508Z,3.26
2017-12-30T01:18:53.629Z,3.26
2017-12-30T01:19:53.670Z,3.27
2017-12-30T01:20:53.866Z,3.27
2017-12-30T01:21:53.659Z,3.28
2017-12-30T01:22:53.878Z,3.29
2017-12-30T01:23:54.061Z,3.3
2017-12-30T01:24:54.141Z,3.32
2017-12-30T01:25:54.155Z,3.33
2017-12-30T01:26:54.196Z,3.34
2017-12-30T01:27:54.315Z,3.34
2017-12-30T01:28:54.411Z,3.35
2017-12-30T01:29:53.649Z,3.35
2017-12-30T01:30:53.594Z,3.36
2017-12-30T01:31:53.616Z,3.36
2017-12-30T01:32:53.589Z,3.36
2017-12-30T01:33:53.398Z,3.36
2017-12-30T01:34:54.349Z,3.36
2017-12-30T01:35:53.433Z,3.37
2017-12-30T01:36:54.374Z,3.37
2017-12-30T01:37:53.471Z,3.37
2017-12-30T01:38:53.450Z,3.37
2017-12-30T01:39:53.559Z,3.37
2017-12-30T01:40:53.632Z,3.37
2017-12-30T01:41:53.879Z,3.37
2017-12-30T01:42:53.974Z,3.38
2017-12-30T01:43:53.968Z,3.39
2017-12-30T01:44:53.902Z,3.39
2017-12-30T01:45:54.231Z,3.41
2017-12-30T01:46:54.387Z,3.41
2017-12-30T01:49:02.024Z,3.43
2017-12-30T01:49:54.082Z,3.43
2017-12-30T01:50:53.341Z,3.43
2017-12-30T01:51:54.283Z,3.44
2017-12-30T01:52:54.263Z,3.45
2017-12-30T01:53:54.090Z,3.45
2017-12-30T01:54:54.117Z,3.46
2017-12-30T01:55:54.046Z,3.46
2017-12-30T01:56:53.875Z,3.45
2017-12-30T01:57:53.614Z,3.46
2017-12-30T01:58:53.839Z,3.46
2017-12-30T02:01:58.979Z,3.46
2017-12-30T02:02:54.249Z,3.47
2017-12-30T02:03:54.150Z,3.47
2017-12-30T02:04:53.959Z,3.46
2017-12-30T02:05:54.047Z,3.45
2017-12-30T02:06:54.047Z,3.43
2017-12-30T02:07:53.993Z,3.42
2017-12-30T02:08:53.764Z,3.42
2017-12-30T02:09:53.487Z,3.4
2017-12-30T02:10:53.660Z,3.39
2017-12-30T02:11:53.475Z,3.38
2017-12-30T02:12:53.574Z,3.37
2017-12-30T02:13:53.570Z,3.37
2017-12-30T02:14:53.821Z,3.37
2017-12-30T02:15:53.783Z,3.36
2017-12-30T02:16:54.026Z,3.36
2017-12-30T02:17:54.331Z,3.35
2017-12-30T02:18:53.995Z,3.36
2017-12-30T02:19:54.045Z,3.37
2017-12-30T02:20:53.914Z,3.36
2017-12-30T02:21:53.880Z,3.37
2017-12-30T02:22:54.110Z,3.36
2017-12-30T02:23:53.954Z,3.36
2017-12-30T02:24:53.783Z,3.36
2017-12-30T02:25:53.555Z,3.36
2017-12-30T02:26:53.664Z,3.37
2017-12-30T02:27:53.680Z,3.38
2017-12-30T02:28:53.695Z,3.38
2017-12-30T02:29:53.643Z,3.39
2017-12-30T02:30:54.331Z,3.41
2017-12-30T02:31:53.412Z,3.41
2017-12-30T02:32:53.357Z,3.43
2017-12-30T02:33:54.312Z,3.41
2017-12-30T02:34:53.643Z,3.44
2017-12-30T02:35:53.741Z,3.46
2017-12-30T02:36:53.884Z,3.47
2017-12-30T02:37:53.955Z,3.48
2017-12-30T02:38:53.919Z,3.5
2017-12-30T02:39:53.687Z,3.51
2017-12-30T02:40:53.907Z,3.53
2017-12-30T02:41:53.783Z,3.54
2017-12-30T02:42:53.760Z,3.55
2017-12-30T02:43:53.672Z,3.56
2017-12-30T02:44:53.664Z,3.54
2017-12-30T02:45:53.489Z,3.55
2017-12-30T02:46:53.450Z,3.54
2017-12-30T02:47:53.647Z,3.53
2017-12-30T02:48:53.809Z,3.53
2017-12-30T02:49:53.824Z,3.52
2017-12-30T02:50:54.716Z,3.53
2017-12-30T02:51:54.747Z,3.52
2017-12-30T02:52:54.645Z,3.5
2017-12-30T02:53:54.025Z,3.49
2017-12-30T02:54:53.998Z,3.48
2017-12-30T02:55:54.049Z,3.47
2017-12-30T02:56:54.026Z,3.46
2017-12-30T02:57:53.973Z,3.44
2017-12-30T02:58:53.966Z,3.44
2017-12-30T02:59:53.788Z,3.44
2017-12-30T03:00:54.631Z,3.44
2017-12-30T03:01:54.573Z,3.44
2017-12-30T03:02:54.577Z,3.43
2017-12-30T03:03:54.622Z,3.42
2017-12-30T03:04:54.610Z,3.41
2017-12-30T03:05:54.953Z,3.41
2017-12-30T03:06:54.084Z,3.43
2017-12-30T03:07:54.049Z,3.43
2017-12-30T03:08:53.973Z,3.42
2017-12-30T03:09:53.837Z,3.43
2017-12-30T03:10:53.831Z,3.43
2017-12-30T03:11:53.813Z,3.42
2017-12-30T03:12:54.547Z,3.42
2017-12-30T03:13:54.609Z,3.4
2017-12-30T03:14:54.641Z,3.4
2017-12-30T03:15:53.790Z,3.4
2017-12-30T03:16:54.723Z,3.39
2017-12-30T03:17:53.891Z,3.37
2017-12-30T03:18:53.894Z,3.37
2017-12-30T03:19:54.262Z,3.36
2017-12-30T03:20:54.091Z,3.34
2017-12-30T03:21:54.087Z,3.34
2017-12-30T03:22:54.106Z,3.35
2017-12-30T03:23:54.125Z,3.35
2017-12-30T03:24:54.134Z,3.36
2017-12-30T03:25:54.121Z,3.35
2017-12-30T03:26:53.916Z,3.36
2017-12-30T03:27:54.880Z,3.36
2017-12-30T03:28:54.827Z,3.36
2017-12-30T03:29:53.947Z,3.38
2017-12-30T03:30:53.998Z,3.38
2017-12-30T03:31:54.101Z,3.39
2017-12-30T03:32:54.151Z,3.39
2017-12-30T03:33:54.425Z,3.39
2017-12-30T03:34:54.483Z,3.4
2017-12-30T03:35:54.516Z,3.4
2017-12-30T03:36:54.478Z,3.4
2017-12-30T03:37:54.351Z,3.4
2017-12-30T03:38:54.281Z,3.39
2017-12-30T03:39:54.474Z,3.4
2017-12-30T03:40:54.221Z,3.39
2017-12-30T03:41:54.287Z,3.4
2017-12-30T03:42:54.474Z,3.38
2017-12-30T03:43:54.648Z,3.38
2017-12-30T03:44:54.884Z,3.38
2017-12-30T03:45:54.785Z,3.37
2017-12-30T03:46:54.533Z,3.36
2017-12-30T03:47:54.653Z,3.35
2017-12-30T03:48:54.591Z,3.34
2017-12-30T03:49:53.509Z,3.33
2017-12-30T03:52:56.382Z,3.3
2017-12-30T03:53:53.654Z,3.3
2017-12-30T03:54:53.630Z,3.3
2017-12-30T03:55:53.715Z,3.3
2017-12-30T03:56:53.954Z,3.28
2017-12-30T03:57:54.016Z,3.28
2017-12-30T03:58:54.365Z,3.27
2017-12-30T03:59:54.464Z,3.28
2017-12-30T04:00:53.611Z,3.28
2017-12-30T04:01:53.476Z,3.27
2017-12-30T04:02:53.522Z,3.28
2017-12-30T04:03:53.697Z,3.28
2017-12-30T04:04:53.777Z,3.31
2017-12-30T04:05:53.711Z,3.3
2017-12-30T04:06:53.827Z,3.29
2017-12-30T04:07:53.639Z,3.28
2017-12-30T04:08:53.625Z,3.28
2017-12-30T04:09:53.603Z,3.27
2017-12-30T04:10:53.744Z,3.27
2017-12-30T04:11:53.664Z,3.27
2017-12-30T04:12:53.812Z,3.25
2017-12-30T04:13:54.353Z,3.24
2017-12-30T04:14:53.543Z,3.24
2017-12-30T04:15:54.481Z,3.22
2017-12-30T04:16:53.632Z,3.21
2017-12-30T04:17:53.726Z,3.2
2017-12-30T04:18:53.870Z,3.2
2017-12-30T04:19:53.819Z,3.19
2017-12-30T04:20:53.937Z,3.19
2017-12-30T04:21:53.977Z,3.19
2017-12-30T04:22:53.976Z,3.18
2017-12-30T04:23:54.063Z,3.18
2017-12-30T04:24:54.283Z,3.18
2017-12-30T04:25:54.216Z,3.18
2017-12-30T04:26:54.251Z,3.16
2017-12-30T04:27:54.271Z,3.18
2017-12-30T04:28:54.633Z,3.17
2017-12-30T04:29:54.648Z,3.18
2017-12-30T04:30:54.505Z,3.18
2017-12-30T04:31:54.649Z,3.19
2017-12-30T04:32:53.901Z,3.2
2017-12-30T04:33:53.973Z,3.2
2017-12-30T04:34:53.849Z,3.21
2017-12-30T04:35:53.783Z,3.21
2017-12-30T04:36:53.789Z,3.21
2017-12-30T04:37:53.882Z,3.21
2017-12-30T04:38:53.890Z,3.22
2017-12-30T04:39:54.773Z,3.22
2017-12-30T04:40:53.937Z,3.23
2017-12-30T04:41:53.852Z,3.24
2017-12-30T04:42:54.748Z,3.27
2017-12-30T04:43:53.809Z,3.27
2017-12-30T04:44:53.788Z,3.27
2017-12-30T04:45:54.702Z,3.27
2017-12-30T04:46:53.865Z,3.28
2017-12-30T04:47:53.897Z,3.28
2017-12-30T04:48:53.955Z,3.29
2017-12-30T04:49:54.817Z,3.31
2017-12-30T04:50:54.802Z,3.32
2017-12-30T04:51:53.995Z,3.33
2017-12-30T04:52:54.807Z,3.34
2017-12-30T04:53:53.977Z,3.35
2017-12-30T04:54:53.933Z,3.35
2017-12-30T04:55:53.994Z,3.36
2017-12-30T04:56:54.526Z,3.37
2017-12-30T04:57:54.518Z,3.37
2017-12-30T04:58:54.493Z,3.37
2017-12-30T04:59:54.830Z,3.39
2017-12-30T05:00:53.872Z,3.39
2017-12-30T05:01:53.854Z,3.39
2017-12-30T05:02:54.666Z,3.41
2017-12-30T05:04:03.197Z,3.42
2017-12-30T05:04:54.384Z,3.43
2017-12-30T05:05:54.478Z,3.46
2017-12-30T05:06:54.404Z,3.48
2017-12-30T05:07:54.425Z,3.48
2017-12-30T05:08:54.456Z,3.5
2017-12-30T05:09:54.510Z,3.52
2017-12-30T05:10:54.863Z,3.53
2017-12-30T05:11:53.917Z,3.56
2017-12-30T05:12:53.929Z,3.59
2017-12-30T05:13:54.113Z,3.61
2017-12-30T05:14:54.110Z,3.62
2017-12-30T05:15:54.016Z,3.64
2017-12-30T05:16:53.991Z,3.65
2017-12-30T05:17:53.918Z,3.66
2017-12-30T05:18:53.894Z,3.67
2017-12-30T05:19:53.857Z,3.68
2017-12-30T05:20:54.840Z,3.7
2017-12-30T05:21:53.945Z,3.71
2017-12-30T05:22:53.994Z,3.72
2017-12-30T05:23:53.981Z,3.74
2017-12-30T05:24:53.896Z,3.78
2017-12-30T05:25:53.872Z,3.78
2017-12-30T05:26:53.890Z,3.8
2017-12-30T05:27:53.987Z,3.81
2017-12-30T05:28:54.234Z,3.81
2017-12-30T05:29:54.446Z,3.83
2017-12-30T05:30:54.133Z,3.83
2017-12-30T05:31:54.118Z,3.84
2017-12-30T05:32:54.748Z,3.84
2017-12-30T05:33:55.002Z,3.85
2017-12-30T05:34:54.183Z,3.85
2017-12-30T05:35:53.997Z,3.85
2017-12-30T05:36:53.983Z,3.85
2017-12-30T05:37:54.837Z,3.84
2017-12-30T05:38:53.862Z,3.85
2017-12-30T05:39:54.010Z,3.85
2017-12-30T05:40:53.936Z,3.85
2017-12-30T05:41:53.839Z,3.84
2017-12-30T05:42:54.789Z,3.85
2017-12-30T05:43:53.893Z,3.87
2017-12-30T05:44:54.045Z,3.87
2017-12-30T05:45:53.942Z,3.89
2017-12-30T05:46:54.816Z,3.91
2017-12-30T05:47:54.826Z,3.91
2017-12-30T05:48:53.945Z,3.92
2017-12-30T05:49:54.050Z,3.92
2017-12-30T05:50:54.144Z,3.92
2017-12-30T05:51:54.136Z,3.93
2017-12-30T05:52:54.039Z,3.93
2017-12-30T05:53:53.938Z,3.94
2017-12-30T05:54:53.120Z,3.94
2017-12-30T05:55:54.135Z,3.94
2017-12-30T05:56:54.081Z,3.95
2017-12-30T05:57:53.972Z,3.94
2017-12-30T05:58:53.950Z,3.95
2017-12-30T05:59:53.628Z,3.97
2017-12-30T06:00:53.507Z,3.96
2017-12-30T06:01:53.408Z,3.96
2017-12-30T06:02:53.540Z,3.97
2017-12-30T06:03:53.391Z,3.97
2017-12-30T06:04:53.442Z,3.98
2017-12-30T06:05:53.313Z,3.98
2017-12-30T06:06:53.537Z,3.98
2017-12-30T06:07:53.666Z,3.99
2017-12-30T06:08:53.854Z,4.01
2017-12-30T06:09:54.069Z,4.02
2017-12-30T06:10:53.512Z,4.04
2017-12-30T06:11:53.477Z,4.05
2017-12-30T06:12:53.614Z,4.05
2017-12-30T06:13:53.753Z,4.07
2017-12-30T06:14:53.785Z,4.1
2017-12-30T06:15:53.761Z,4.12
2017-12-30T06:16:53.726Z,4.14
2017-12-30T06:17:53.698Z,4.14
2017-12-30T06:18:53.618Z,4.15
2017-12-30T06:19:53.576Z,4.19
2017-12-30T06:20:53.600Z,4.2
2017-12-30T06:21:53.856Z,4.22
2017-12-30T06:22:53.053Z,4.23
2017-12-30T06:23:53.995Z,4.22
2017-12-30T06:24:53.097Z,4.22
2017-12-30T06:25:53.159Z,4.23
2017-12-30T06:26:53.555Z,4.23
2017-12-30T06:27:53.766Z,4.24
2017-12-30T06:28:53.569Z,4.25
2017-12-30T06:29:53.590Z,4.25
2017-12-30T06:30:53.684Z,4.24
2017-12-30T06:31:53.442Z,4.25
2017-12-30T06:32:53.612Z,4.25
2017-12-30T06:33:53.884Z,4.25
2017-12-30T06:34:54.036Z,4.25
2017-12-30T06:35:53.104Z,4.25
2017-12-30T06:36:53.105Z,4.25
2017-12-30T06:37:53.161Z,4.27
2017-12-30T06:38:53.322Z,4.27
2017-12-30T06:39:53.603Z,4.27
2017-12-30T06:40:53.502Z,4.27
2017-12-30T06:41:53.599Z,4.26
2017-12-30T06:42:53.534Z,4.26
2017-12-30T06:43:53.419Z,4.26
2017-12-30T06:44:53.292Z,4.26
2017-12-30T06:45:53.373Z,4.28
2017-12-30T06:46:53.128Z,4.28
2017-12-30T06:47:53.374Z,4.28
2017-12-30T06:48:53.278Z,4.31
2017-12-30T06:49:53.334Z,4.3
2017-12-30T06:50:53.486Z,4.31
2017-12-30T06:51:53.514Z,4.32
2017-12-30T06:52:53.547Z,4.32
2017-12-30T06:53:53.538Z,4.33
2017-12-30T06:54:54.398Z,4.32
2017-12-30T06:55:53.557Z,4.32
2017-12-30T06:56:54.530Z,4.33
2017-12-30T06:57:53.826Z,4.33
2017-12-30T06:58:53.769Z,4.34
2017-12-30T06:59:53.849Z,4.34
2017-12-30T07:00:53.779Z,4.34
2017-12-30T07:01:53.713Z,4.35
2017-12-30T07:02:53.617Z,4.35
2017-12-30T07:03:54.491Z,4.35
2017-12-30T07:04:53.562Z,4.35
2017-12-30T07:05:54.514Z,4.35
2017-12-30T07:06:54.464Z,4.35
2017-12-30T07:07:53.703Z,4.36
2017-12-30T07:08:53.673Z,4.36
2017-12-30T07:09:53.579Z,4.37
2017-12-30T07:10:53.920Z,4.36
2017-12-30T07:13:54.281Z,4.39
2017-12-30T07:14:54.364Z,4.4
2017-12-30T07:15:54.468Z,4.39
2017-12-30T07:16:54.556Z,4.4
2017-12-30T07:17:54.140Z,4.41
2017-12-30T07:18:54.167Z,4.41
2017-12-30T07:19:54.358Z,4.4
2017-12-30T07:20:54.306Z,4.41
2017-12-30T07:21:54.416Z,4.41
2017-12-30T07:22:54.451Z,4.41
2017-12-30T07:23:54.296Z,4.41
2017-12-30T07:24:54.318Z,4.42
2017-12-30T07:25:53.645Z,4.41
2017-12-30T07:26:53.785Z,4.41
2017-12-30T07:27:53.874Z,4.4
2017-12-30T07:28:53.615Z,4.4
2017-12-30T07:29:54.413Z,4.4
2017-12-30T07:30:54.397Z,4.4
2017-12-30T07:31:54.554Z,4.4
2017-12-30T07:32:53.561Z,4.39
2017-12-30T07:33:53.475Z,4.39
2017-12-30T07:34:54.383Z,4.39
2017-12-30T07:35:53.481Z,4.4
2017-12-30T07:36:54.423Z,4.4
2017-12-30T07:37:53.507Z,4.4
2017-12-30T07:38:54.373Z,4.41
2017-12-30T07:39:54.355Z,4.4
2017-12-30T07:40:54.307Z,4.4
2017-12-30T07:41:54.329Z,4.4
2017-12-30T07:42:54.329Z,4.4
2017-12-30T07:43:53.667Z,4.4
2017-12-30T07:44:53.470Z,4.39
2017-12-30T07:45:54.363Z,4.39
2017-12-30T07:48:01.785Z,4.39
2017-12-30T07:48:53.755Z,4.39
2017-12-30T07:49:53.789Z,4.38
2017-12-30T07:50:53.799Z,4.38
2017-12-30T07:51:53.588Z,4.37
2017-12-30T07:52:53.678Z,4.38
2017-12-30T07:53:53.953Z,4.38
2017-12-30T07:54:54.787Z,4.38
2017-12-30T07:55:54.688Z,4.38
2017-12-30T07:56:54.517Z,4.38
2017-12-30T07:57:54.647Z,4.38
2017-12-30T07:58:54.473Z,4.37
2017-12-30T07:59:54.598Z,4.38
2017-12-30T08:00:54.609Z,4.38
2017-12-30T08:01:54.676Z,4.37
2017-12-30T08:02:54.501Z,4.36
2017-12-30T08:03:54.724Z,4.35
2017-12-30T08:04:54.752Z,4.34
2017-12-30T08:05:54.816Z,4.32
2017-12-30T08:06:54.654Z,4.31
2017-12-30T08:07:54.585Z,4.29
2017-12-30T08:08:54.683Z,4.27
2017-12-30T08:09:54.851Z,4.26
2017-12-30T08:10:54.035Z,4.24
2017-12-30T08:11:54.069Z,4.23
2017-12-30T08:12:54.194Z,4.2
2017-12-30T08:13:54.280Z,4.19
2017-12-30T08:14:54.321Z,4.18
2017-12-30T08:15:54.349Z,4.18
2017-12-30T08:16:54.282Z,4.16
2017-12-30T08:17:54.245Z,4.15
2017-12-30T08:18:54.416Z,4.14
2017-12-30T08:19:54.462Z,4.13
2017-12-30T08:20:54.407Z,4.11
2017-12-30T08:21:54.438Z,4.12
2017-12-30T08:22:54.639Z,4.11
2017-12-30T08:23:54.883Z,4.1
2017-12-30T08:24:53.966Z,4.1
2017-12-30T08:25:54.716Z,4.09
2017-12-30T08:26:54.838Z,4.09
2017-12-30T08:27:53.987Z,4.09
2017-12-30T08:28:54.826Z,4.07
2017-12-30T08:29:54.527Z,4.07
2017-12-30T08:30:54.437Z,4.07
2017-12-30T08:31:54.427Z,4.07
2017-12-30T08:32:54.416Z,4.07
2017-12-30T08:33:54.708Z,4.06
2017-12-30T08:34:54.651Z,4.06
2017-12-30T08:35:53.989Z,4.05
2017-12-30T08:36:54.199Z,4.06
2017-12-30T08:37:54.225Z,4.06
2017-12-30T08:38:54.421Z,4.05
2017-12-30T08:39:54.536Z,4.05
2017-12-30T08:40:54.645Z,4.05
2017-12-30T08:41:54.743Z,4.05
2017-12-30T08:43:56.754Z,4.04
2017-12-30T08:44:54.575Z,4.04
2017-12-30T08:45:53.951Z,4.04
2017-12-30T08:46:54.838Z,4.04
2017-12-30T08:47:54.004Z,4.03
2017-12-30T08:48:54.822Z,4.03
2017-12-30T08:49:54.262Z,4.02
2017-12-30T08:50:54.134Z,4.02
2017-12-30T08:51:54.300Z,4.03
2017-12-30T08:52:54.330Z,4.03
2017-12-30T08:53:54.497Z,4.03
2017-12-30T08:54:54.646Z,4.02
2017-12-30T08:55:53.999Z,4.03
2017-12-30T08:56:54.022Z,4.04
2017-12-30T08:57:54.035Z,4.04
2017-12-30T08:58:54.088Z,4.06
2017-12-30T08:59:54.131Z,4.05
2017-12-30T09:00:54.418Z,4.06
2017-12-30T09:01:53.477Z,4.06
2017-12-30T09:02:54.290Z,4.07
2017-12-30T09:03:54.396Z,4.08
2017-12-30T09:04:54.245Z,4.08
2017-12-30T09:05:54.298Z,4.08
2017-12-30T09:06:54.313Z,4.09
2017-12-30T09:07:54.404Z,4.09
2017-12-30T09:08:53.762Z,4.1
2017-12-30T09:09:53.681Z,4.11
2017-12-30T09:10:54.304Z,4.11
2017-12-30T09:11:54.293Z,4.12
2017-12-30T09:12:54.449Z,4.13
2017-12-30T09:13:53.690Z,4.13
2017-12-30T09:14:53.794Z,4.14
2017-12-30T09:15:54.277Z,4.13
2017-12-30T09:16:54.327Z,4.14
2017-12-30T09:17:54.352Z,4.15
2017-12-30T09:18:54.253Z,4.16
2017-12-30T09:19:53.686Z,4.17
2017-12-30T09:20:54.084Z,4.17
2017-12-30T09:21:54.102Z,4.18
2017-12-30T09:22:54.270Z,4.18
2017-12-30T09:24:53.859Z,4.19
2017-12-30T09:25:54.103Z,4.2
2017-12-30T09:26:53.321Z,4.2
2017-12-30T09:27:53.231Z,4.2
2017-12-30T09:28:53.339Z,4.19
2017-12-30T09:29:53.339Z,4.21
2017-12-30T09:30:53.158Z,4.19
2017-12-30T09:31:53.236Z,4.2
2017-12-30T09:32:53.232Z,4.21
2017-12-30T09:33:53.197Z,4.21
2017-12-30T09:34:53.529Z,4.21
2017-12-30T09:35:53.669Z,4.22
2017-12-30T09:36:53.587Z,4.21
2017-12-30T09:37:53.671Z,4.22
2017-12-30T09:38:53.815Z,4.23
2017-12-30T09:39:53.841Z,4.23
2017-12-30T09:40:53.472Z,4.24
2017-12-30T09:41:53.527Z,4.24
2017-12-30T09:42:53.423Z,4.24
2017-12-30T09:43:53.521Z,4.23
2017-12-30T09:44:53.503Z,4.23
2017-12-30T09:45:53.644Z,4.24
2017-12-30T09:46:53.741Z,4.25
2017-12-30T09:47:53.716Z,4.25
2017-12-30T09:48:53.658Z,4.24
2017-12-30T09:49:53.632Z,4.25
2017-12-30T09:50:53.537Z,4.26
2017-12-30T09:51:53.466Z,4.26
2017-12-30T09:52:53.559Z,4.25
2017-12-30T09:53:53.773Z,4.25
2017-12-30T09:54:53.911Z,4.26
2017-12-30T09:55:54.005Z,4.26
2017-12-30T09:56:53.958Z,4.26
2017-12-30T09:57:53.938Z,4.27
2017-12-30T09:58:54.141Z,4.28
2017-12-30T09:59:54.156Z,4.27
2017-12-30T10:00:54.189Z,4.28
2017-12-30T10:01:54.132Z,4.28
2017-12-30T10:02:54.195Z,4.27
2017-12-30T10:03:54.047Z,4.28
2017-12-30T10:04:54.918Z,4.28
2017-12-30T10:05:54.102Z,4.28
2017-12-30T10:06:55.138Z,4.28
2017-12-30T10:07:54.133Z,4.28
2017-12-30T10:08:54.164Z,4.28
2017-12-30T10:09:54.217Z,4.28
2017-12-30T10:10:54.059Z,4.27
2017-12-30T10:11:54.065Z,4.29
2017-12-30T10:12:53.961Z,4.27
2017-12-30T10:13:54.157Z,4.29
2017-12-30T10:14:54.069Z,4.28
2017-12-30T10:15:54.355Z,4.28
2017-12-30T10:16:54.378Z,4.29
2017-12-30T10:17:54.443Z,4.29
2017-12-30T10:18:54.529Z,4.3
2017-12-30T10:19:54.455Z,4.3
2017-12-30T10:20:54.919Z,4.31
2017-12-30T10:21:54.166Z,4.31
2017-12-30T10:22:54.148Z,4.32
2017-12-30T10:23:54.071Z,4.32
2017-12-30T10:24:54.564Z,4.34
2017-12-30T10:25:54.824Z,4.34
2017-12-30T10:26:53.944Z,4.36
2017-12-30T10:27:53.996Z,4.37
2017-12-30T10:28:54.015Z,4.37
2017-12-30T10:29:54.877Z,4.38
2017-12-30T10:30:54.826Z,4.39
2017-12-30T10:31:54.284Z,4.41
2017-12-30T10:32:54.098Z,4.41
2017-12-30T10:33:54.213Z,4.44
2017-12-30T10:34:54.440Z,4.44
2017-12-30T10:35:54.464Z,4.47
2017-12-30T10:36:54.663Z,4.48
2017-12-30T10:37:54.697Z,4.49
2017-12-30T10:38:54.610Z,4.5
2017-12-30T10:39:54.589Z,4.52
2017-12-30T10:40:54.683Z,4.53
2017-12-30T10:41:54.501Z,4.54
2017-12-30T10:42:54.788Z,4.55
2017-12-30T10:43:54.841Z,4.55
2017-12-30T10:44:54.856Z,4.56
2017-12-30T10:45:54.890Z,4.57
2017-12-30T10:46:54.686Z,4.58
2017-12-30T10:47:54.556Z,4.6
2017-12-30T10:48:28.068Z,4.63
2017-12-30T10:49:28.461Z,4.65
2017-12-30T10:50:28.722Z,4.69
2017-12-30T10:51:28.647Z,4.7
2017-12-30T10:52:28.691Z,4.72
2017-12-30T10:53:28.758Z,4.74
2017-12-30T10:54:28.088Z,4.75
2017-12-30T10:55:28.317Z,4.77
2017-12-30T10:56:28.598Z,4.77
2017-12-30T10:57:28.614Z,4.79
2017-12-30T10:58:28.759Z,4.79
2017-12-30T10:59:28.684Z,4.81
2017-12-30T11:00:28.629Z,4.82
2017-12-30T11:01:28.653Z,4.83
2017-12-30T11:02:28.800Z,4.86
2017-12-30T11:03:27.860Z,4.89
2017-12-30T11:04:27.891Z,4.93
2017-12-30T11:05:27.782Z,4.95
2017-12-30T11:06:28.725Z,4.97
2017-12-30T11:07:28.704Z,4.99
2017-12-30T11:08:28.626Z,5.01
2017-12-30T11:09:28.001Z,5.01
2017-12-30T11:10:27.941Z,5.02
2017-12-30T11:11:28.265Z,5.04
2017-12-30T11:12:28.227Z,5.04
2017-12-30T11:13:28.257Z,5.06
2017-12-30T11:14:28.140Z,5.08
2017-12-30T11:15:27.983Z,5.1
2017-12-30T11:16:28.103Z,5.12
2017-12-30T11:17:28.056Z,5.13
2017-12-30T11:18:28.093Z,5.16
2017-12-30T11:19:27.373Z,5.2
2017-12-30T11:20:27.382Z,5.23
2017-12-30T11:21:27.348Z,5.24
2017-12-30T11:22:27.246Z,5.25
2017-12-30T11:23:27.304Z,5.27
2017-12-30T11:24:27.449Z,5.29
2017-12-30T11:25:27.788Z,5.32
2017-12-30T11:26:27.909Z,5.35
2017-12-30T11:27:28.051Z,5.4
2017-12-30T11:28:27.949Z,5.42
2017-12-30T11:29:27.992Z,5.45
2017-12-30T11:30:27.249Z,5.47
2017-12-30T11:31:27.164Z,5.52
2017-12-30T11:32:27.237Z,5.54
2017-12-30T11:33:27.962Z,5.59
2017-12-30T11:34:27.292Z,5.62
2017-12-30T11:35:27.140Z,5.65
2017-12-30T11:36:27.251Z,5.66
2017-12-30T11:37:27.322Z,5.7
2017-12-30T11:38:27.371Z,5.72
2017-12-30T11:39:27.159Z,5.75
2017-12-30T11:40:27.192Z,5.76
2017-12-30T11:41:27.218Z,5.85
2017-12-30T11:42:27.237Z,5.88
2017-12-30T11:43:27.357Z,5.89
2017-12-30T11:44:27.359Z,5.93
2017-12-30T11:45:27.350Z,5.97
2017-12-30T11:46:27.489Z,6.01
2017-12-30T11:47:27.779Z,6.04
2017-12-30T11:48:27.849Z,6.05
2017-12-30T11:49:27.881Z,6.06
2017-12-30T11:50:28.242Z,6.09
2017-12-30T11:51:28.003Z,6.1
2017-12-30T11:52:28.235Z,6.12
2017-12-30T11:53:28.083Z,6.14
2017-12-30T11:54:28.145Z,6.17
2017-12-30T11:55:28.278Z,6.19
2017-12-30T11:56:28.351Z,6.23
2017-12-30T11:57:28.278Z,6.26
2017-12-30T11:58:27.851Z,6.32
2017-12-30T11:59:27.916Z,6.34
2017-12-30T12:00:28.134Z,6.38
2017-12-30T12:01:28.015Z,6.38
2017-12-30T12:02:28.088Z,6.41
2017-12-30T12:03:28.066Z,6.45
2017-12-30T12:04:28.236Z,6.51
2017-12-30T12:05:28.555Z,6.53
2017-12-30T12:06:28.744Z,6.56
2017-12-30T12:07:28.722Z,6.59
2017-12-30T12:08:28.754Z,6.63
2017-12-30T12:09:28.636Z,6.66
2017-12-30T12:10:28.781Z,6.68
2017-12-30T12:11:28.739Z,6.7
2017-12-30T12:12:56.863Z,6.73
2017-12-30T12:13:27.953Z,6.74
2017-12-30T12:14:27.935Z,6.75
2017-12-30T12:15:27.986Z,6.77
2017-12-30T12:16:28.133Z,6.8
2017-12-30T12:17:28.346Z,6.83
2017-12-30T12:18:28.398Z,6.89
2017-12-30T12:19:28.434Z,6.91
2017-12-30T12:20:28.192Z,6.96
2017-12-30T12:21:28.242Z,6.97
2017-12-30T12:22:28.355Z,6.99
2017-12-30T12:23:28.364Z,7.02
2017-12-30T12:24:28.307Z,7.05
2017-12-30T12:25:28.148Z,7.07
2017-12-30T12:26:28.024Z,7.11
2017-12-30T12:27:27.892Z,7.13
2017-12-30T12:28:27.863Z,7.15
2017-12-30T12:29:27.784Z,7.18
2017-12-30T12:30:28.510Z,7.23
2017-12-30T12:31:28.435Z,7.28
2017-12-30T12:32:28.393Z,7.31
2017-12-30T12:33:27.588Z,7.36
2017-12-30T12:34:27.552Z,7.41
2017-12-30T12:35:28.338Z,7.44
2017-12-30T12:37:27.687Z,7.51
2017-12-30T12:38:28.244Z,7.53
2017-12-30T12:39:27.952Z,7.55
2017-12-30T12:40:28.269Z,7.58
2017-12-30T12:41:28.076Z,7.61
2017-12-30T12:42:28.171Z,7.65
2017-12-30T12:43:28.461Z,7.69
2017-12-30T12:44:28.127Z,7.73
2017-12-30T12:45:28.429Z,7.73
2017-12-30T12:46:27.972Z,7.76
2017-12-30T12:47:28.331Z,7.78
2017-12-30T12:48:27.783Z,7.81
2017-12-30T12:49:28.345Z,7.82
2017-12-30T12:50:27.881Z,7.84
2017-12-30T12:51:28.245Z,7.88
2017-12-30T12:52:28.742Z,7.88
2017-12-30T12:53:27.837Z,7.9
2017-12-30T12:54:28.905Z,7.91
2017-12-30T12:55:28.081Z,7.92
2017-12-30T12:56:28.364Z,7.95
2017-12-30T12:57:28.992Z,7.96
2017-12-30T12:58:28.713Z,7.98
2017-12-30T12:59:28.064Z,7.98
2017-12-30T13:00:28.293Z,8
2017-12-30T13:01:28.435Z,7.98
2017-12-30T13:02:28.646Z,8
2017-12-30T13:03:28.247Z,8.01
2017-12-30T13:04:28.420Z,8.02
2017-12-30T13:05:28.628Z,8.02
2017-12-30T13:06:28.865Z,8.04
2017-12-30T13:07:28.080Z,8.05
2017-12-30T13:08:28.484Z,8.06
2017-12-30T13:09:28.868Z,8.08
2017-12-30T13:10:28.377Z,8.11
2017-12-30T13:11:28.406Z,8.12
2017-12-30T13:12:28.381Z,8.12
2017-12-30T13:13:28.409Z,8.11
2017-12-30T13:14:28.734Z,8.12
2017-12-30T13:15:28.022Z,8.12
2017-12-30T13:16:28.512Z,8.13
2017-12-30T13:17:27.875Z,8.12
2017-12-30T13:18:28.097Z,8.13
2017-12-30T13:19:28.543Z,8.14
2017-12-30T13:20:28.682Z,8.15
2017-12-30T13:21:28.216Z,8.15
2017-12-30T13:22:28.335Z,8.16
2017-12-30T13:23:28.547Z,8.17
2017-12-30T13:24:27.783Z,8.17
2017-12-30T13:25:27.679Z,8.19
2017-12-30T13:26:33.223Z,8.18
2017-12-30T13:27:27.861Z,8.2
2017-12-30T13:28:27.797Z,8.25
2017-12-30T13:29:27.876Z,8.26
2017-12-30T13:30:28.242Z,8.27
2017-12-30T13:31:28.317Z,8.29